Flight Track Log - Related Links

Times and Time Zones

All times are in EDT time to prevent confusion due to time zone crossing. See the SWA2891 flight status page for this flight to view local times or setup timezone preferences in your user account.

Time Position Orientation Groundspeed Altitude Reporting Facility
EDT Latitude Longitude Course Direction KTS MPH feet Rate Location/Type
Mon 03:17:02 PM 33.6333 -84.4833 168° South 205 236 3,800  Level Atlanta TRACON
Mon 03:18:03 PM 33.6333 -84.5833 270° West 274 315 7,100 3,235 Climbing Atlanta TRACON
Mon 03:18:57 PM 33.6194 -84.6675 259° West 287 330 10,000 1,526 Climbing Atlanta Center
Mon 03:19:57 PM 33.5358 -84.6967 196° South 334 384 10,000 50 Level Atlanta Center
Mon 03:20:57 PM 33.4397 -84.6886 176° South 334 384 10,100 1,500 Climbing Atlanta Center
Mon 03:21:57 PM 33.3525 -84.6333 152° Southeast 342 394 13,000 3,300 Climbing Atlanta Center
Mon 03:22:00 PM 33.1692 -84.2131 168° South  Level FlightAware Approximate
Mon 03:22:57 PM 33.2819 -84.5408 132° Southeast 349 402 16,700  Level Atlanta Center
Mon 03:23:57 PM 33.2050 -84.4386 132° Southeast 375 432 19,900 3,000 Climbing Atlanta Center
Mon 03:25:57 PM 33.0406 -84.2322 134° Southeast 430 495 25,700 2,600 Climbing Atlanta Center
Mon 03:26:57 PM 32.9508 -84.1553 144° Southeast 435 501 27,700 2,050 Climbing Atlanta Center
Mon 03:27:57 PM 32.8236 -84.1031 161° South 450 518 29,800 2,500 Climbing Atlanta Center
Mon 03:28:57 PM 32.6983 -84.0511 161° South 467 537 32,700 2,400 Climbing Atlanta Center
Mon 03:29:57 PM 32.5753 -83.9994 161° South 473 544 34,600 1,150 Climbing Atlanta Center
Mon 03:30:57 PM 32.4500 -83.9478 161° South 473 544 35,000 200 Climbing Atlanta Center
Mon 03:31:57 PM 32.3225 -83.8964 161° South 479 551 35,000  Level Atlanta Center
Mon 03:32:57 PM 32.2014 -83.8475 161° South 479 551 35,000  Level Atlanta Center
Mon 03:33:57 PM 32.0700 -83.7936 161° South 479 551 35,000  Level Atlanta Center
Mon 03:35:16 PM 31.9069 -83.7272 161° South 472 543 35,000  Level Jacksonville Center
Mon 03:36:16 PM 31.7842 -83.6819 163° South 461 531 35,000  Level Jacksonville Center
Mon 03:37:16 PM 31.6633 -83.6247 158° South 467 537 35,000  Level Jacksonville Center
Mon 03:38:16 PM 31.5467 -83.5800 162° South 480 552 35,000  Level Jacksonville Center
Mon 03:39:16 PM 31.4364 -83.5039 150° Southeast 475 547 35,000  Level Jacksonville Center
Mon 03:40:16 PM 31.3261 -83.4253 149° Southeast 469 540 35,000  Level Jacksonville Center
Mon 03:41:16 PM 31.2158 -83.3444 148° Southeast 469 540 35,000  Level Jacksonville Center
Mon 03:42:16 PM 31.1053 -83.2639 148° Southeast 469 540 35,000 -100 Level Jacksonville Center
Mon 03:43:16 PM 30.9928 -83.1833 148° Southeast 469 540 34,800 -600 Descending Jacksonville Center
Mon 03:44:16 PM 30.8803 -83.1008 148° Southeast 469 540 33,800 -1,000 Descending Jacksonville Center
Mon 03:45:16 PM 30.7572 -83.0086 147° Southeast 474 545 32,800 -950 Descending Jacksonville Center
Mon 03:46:16 PM 30.6528 -82.9408 151° Southeast 474 545 31,900 -1,000 Descending Jacksonville Center
Mon 03:47:16 PM 30.5317 -82.8467 146° Southeast 479 551 30,800 -1,000 Descending Jacksonville Center
Mon 03:48:16 PM 30.4147 -82.7650 149° Southeast 479 551 29,900 -950 Descending Jacksonville Center
Mon 03:49:16 PM 30.2997 -82.6833 148° Southeast 484 557 28,900 -1,050 Descending Jacksonville Center
Mon 03:50:16 PM 30.1869 -82.6089 150° Southeast 484 557 27,800 -1,100 Descending Jacksonville Center
Mon 03:51:16 PM 30.0803 -82.5325 148° Southeast 472 543 26,700 -1,050 Descending Jacksonville Center
Mon 03:52:16 PM 29.9736 -82.4561 148° Southeast 459 528 25,700 -850 Descending Jacksonville Center
Mon 03:53:16 PM 29.8564 -82.4111 162° South 446 513 25,000 -350 Descending Jacksonville Center
Mon 03:54:16 PM 29.7372 -82.3689 163° South 446 513 25,000  Level Jacksonville Center
Mon 03:55:16 PM 29.6264 -82.3144 157° South 446 513 25,000  Level Jacksonville Center
Mon 03:56:16 PM 29.5092 -82.2531 155° Southeast 451 519 25,000 -300 Level Jacksonville Center
Mon 03:57:16 PM 29.3919 -82.1942 156° South 457 526 24,400 -1,700 Descending Jacksonville Center
Mon 03:58:16 PM 29.2997 -82.1472 156° South 457 526 21,600 -3,100 Descending Jacksonville Center
Mon 03:59:16 PM 29.1806 -82.0864 156° South 444 511 18,200 -3,400 Descending Jacksonville Center
Mon 04:00:16 PM 29.0758 -82.0300 155° Southeast 432 497 14,800 -3,050 Descending Jacksonville Center
Mon 04:01:16 PM 28.9772 -81.9811 157° South 411 473 12,100 -1,900 Descending Jacksonville Center
Mon 04:02:16 PM 28.8914 -81.9344 155° Southeast 373 429 11,000 -1,476 Descending Jacksonville Center
Mon 04:03:22 PM 28.8500 -81.8333 115° Southeast 289 333 9,000 -1,000 Descending Orlando TRACON
Mon 04:04:16 PM 28.8333 -81.7667 106° East 244 281 9,000  Level Orlando TRACON
Mon 04:05:16 PM 28.8167 -81.6833 103° East 239 275 9,000  Level Orlando TRACON
Mon 04:06:17 PM 28.8000 -81.6167 106° East 240 276 9,000 -400 Level Orlando TRACON
Mon 04:07:16 PM 28.7667 -81.5500 120° Southeast 242 278 8,200 -950 Descending Orlando TRACON
Mon 04:08:17 PM 28.7333 -81.4833 120° Southeast 238 274 7,100 -1,041 Descending Orlando TRACON
Mon 04:09:17 PM 28.7000 -81.4167 120° Southeast 234 269 6,100 -1,200 Descending Orlando TRACON
Mon 04:10:17 PM 28.6500 -81.3667 139° Southeast 228 262 4,700 -1,450 Descending Orlando TRACON
Mon 04:11:17 PM 28.6167 -81.3167 127° Southeast 221 254 3,200 -1,100 Descending Orlando TRACON
Mon 04:12:17 PM 28.5500 -81.3000 168° South 203 234 2,500 -800 Descending Orlando TRACON
Mon 04:13:17 PM 28.5167 -81.3000 180° South 163 188 1,600 -850 Descending Orlando TRACON
Mon 04:14:17 PM 28.4667 -81.3000 180° South 134 154 800 -800 Descending Orlando TRACON
Mon 04:16:00 PM 28.4294 -81.3090 180° South  Level Estimated
Mon 04:23:00 PM 28.4294 -81.3090 24° Northeast  Level Estimated
Mon 04:24:00 PM 28.4294 -81.3090 24° Northeast  Level Estimated
Mon 04:25:00 PM 28.4294 -81.3090 24° Northeast  Level Estimated
Mon 04:26:00 PM 28.4294 -81.3090 24° Northeast  Level Estimated

Login

Don't have an account? Register now (free) for customized features, flight alerts, and more!